createdAt,value
2018-05-14T00:02:24.373Z,17.76
2018-05-14T00:03:24.539Z,17.68
2018-05-14T00:04:24.716Z,17.74
2018-05-14T00:05:24.874Z,17.67
2018-05-14T00:06:25.060Z,17.46
2018-05-14T00:07:25.235Z,17.29
2018-05-14T00:08:25.409Z,17.24
2018-05-14T00:09:25.573Z,17.12
2018-05-14T00:10:25.761Z,17.09
2018-05-14T00:11:25.925Z,17.06
2018-05-14T00:12:26.115Z,17.12
2018-05-14T00:13:26.300Z,17.06
2018-05-14T00:14:26.478Z,17.02
2018-05-14T00:15:26.673Z,16.94
2018-05-14T00:17:59.019Z,17.06
2018-05-14T00:18:59.169Z,17.16
2018-05-14T00:19:59.386Z,17.20
2018-05-14T00:20:59.431Z,17.26
2018-05-14T00:21:59.642Z,17.27
2018-05-14T00:22:59.811Z,17.39
2018-05-14T00:24:00.037Z,17.44
2018-05-14T00:25:00.157Z,17.45
2018-05-14T00:26:00.323Z,17.48
2018-05-14T00:27:00.496Z,17.41
2018-05-14T00:28:00.665Z,17.46
2018-05-14T00:29:00.851Z,17.54
2018-05-14T00:30:01.015Z,17.56
2018-05-14T00:31:01.187Z,17.46
2018-05-14T00:32:01.360Z,17.56
2018-05-14T00:35:52.234Z,17.72
2018-05-14T00:36:52.031Z,17.54
2018-05-14T00:37:52.208Z,17.38
2018-05-14T00:38:52.366Z,17.46
2018-05-14T00:39:52.540Z,17.41
2018-05-14T00:40:52.703Z,17.16
2018-05-14T00:41:52.862Z,17.08
2018-05-14T00:42:53.034Z,17.09
2018-05-14T00:43:53.200Z,17.06
2018-05-14T00:44:53.372Z,17.05
2018-05-14T00:47:35.622Z,17.09
2018-05-14T00:48:35.791Z,17.12
2018-05-14T00:49:35.957Z,17.19
2018-05-14T00:50:36.127Z,17.20
2018-05-14T00:51:36.293Z,17.20
2018-05-14T00:52:36.464Z,17.29
2018-05-14T00:53:36.633Z,17.26
2018-05-14T00:54:36.820Z,17.26
2018-05-14T00:55:36.961Z,17.24
2018-05-14T00:56:37.119Z,17.26
2018-05-14T00:57:37.393Z,17.34
2018-05-14T00:58:37.504Z,17.30
2018-05-14T00:59:37.651Z,17.29
2018-05-14T01:00:37.809Z,17.14
2018-05-14T01:01:37.979Z,17.14
2018-05-14T01:04:20.231Z,17.27
2018-05-14T01:05:20.395Z,17.24
2018-05-14T01:06:20.573Z,17.23
2018-05-14T01:07:20.728Z,17.27
2018-05-14T01:08:20.900Z,17.27
2018-05-14T01:09:21.064Z,17.29
2018-05-14T01:10:21.234Z,17.30
2018-05-14T01:11:21.403Z,17.30
2018-05-14T01:12:21.569Z,17.19
2018-05-14T01:13:21.750Z,17.23
2018-05-14T01:15:54.022Z,17.42
2018-05-14T01:16:54.176Z,17.29
2018-05-14T01:17:54.361Z,17.33
2018-05-14T01:18:54.527Z,17.29
2018-05-14T01:19:54.692Z,17.22
2018-05-14T01:20:54.857Z,17.31
2018-05-14T01:21:55.022Z,17.30
2018-05-14T01:22:55.189Z,17.30
2018-05-14T01:23:55.363Z,17.31
2018-05-14T01:24:55.532Z,17.31
2018-05-14T01:25:55.698Z,17.22
2018-05-14T01:26:55.864Z,17.36
2018-05-14T01:27:56.029Z,17.42
2018-05-14T01:28:56.203Z,17.26
2018-05-14T01:29:56.362Z,17.27
2018-05-14T01:32:28.675Z,17.24
2018-05-14T01:33:28.833Z,17.31
2018-05-14T01:34:29.057Z,17.24
2018-05-14T01:35:29.224Z,17.20
2018-05-14T01:36:29.389Z,17.22
2018-05-14T01:37:29.583Z,17.26
2018-05-14T01:38:29.739Z,17.19
2018-05-14T01:39:29.892Z,17.22
2018-05-14T01:40:30.056Z,17.26
2018-05-14T01:41:30.222Z,17.29
2018-05-14T01:42:30.399Z,17.27
2018-05-14T01:43:31.174Z,17.30
2018-05-14T01:44:31.131Z,17.27
2018-05-14T01:45:30.855Z,17.29
2018-05-14T01:46:31.014Z,17.15
2018-05-14T01:49:13.319Z,17.16
2018-05-14T01:50:13.479Z,17.09
2018-05-14T01:51:13.642Z,17.15
2018-05-14T01:52:13.818Z,17.11
2018-05-14T01:53:13.988Z,17.16
2018-05-14T01:54:14.152Z,17.08
2018-05-14T01:55:14.332Z,17.14
2018-05-14T01:56:14.495Z,17.12
2018-05-14T01:57:14.659Z,17.12
2018-05-14T01:58:14.832Z,17.06
2018-05-14T02:00:57.102Z,17.11
2018-05-14T02:01:57.269Z,17.06
2018-05-14T02:02:57.471Z,17.05
2018-05-14T02:03:57.686Z,17.02
2018-05-14T02:04:57.820Z,17.09
2018-05-14T02:05:58.002Z,17.04
2018-05-14T02:06:58.219Z,17.06
2018-05-14T02:07:58.343Z,17.04
2018-05-14T02:08:58.511Z,17.08
2018-05-14T02:09:59.632Z,17.05
2018-05-14T02:10:58.811Z,16.97
2018-05-14T02:11:58.963Z,16.97
2018-05-14T02:12:59.127Z,16.90
2018-05-14T02:13:59.299Z,16.89
2018-05-14T02:14:59.462Z,16.94
2018-05-14T02:17:41.733Z,16.90
2018-05-14T02:18:41.902Z,16.81
2018-05-14T02:19:42.069Z,16.90
2018-05-14T02:20:42.232Z,16.81
2018-05-14T02:21:42.397Z,16.86
2018-05-14T02:22:42.553Z,16.81
2018-05-14T02:23:42.738Z,16.79
2018-05-14T02:24:42.914Z,16.91
2018-05-14T02:25:43.102Z,16.84
2018-05-14T02:26:43.276Z,16.86
2018-05-14T02:27:43.427Z,16.83
2018-05-14T02:28:43.637Z,16.84
2018-05-14T02:29:43.791Z,16.74
2018-05-14T02:30:43.967Z,16.72
2018-05-14T02:31:44.174Z,16.61
2018-05-14T02:34:16.457Z,16.66
2018-05-14T02:35:16.605Z,16.71
2018-05-14T02:36:16.769Z,16.71
2018-05-14T02:37:16.926Z,16.71
2018-05-14T02:38:17.093Z,16.64
2018-05-14T02:39:17.259Z,16.68
2018-05-14T02:40:17.425Z,16.65
2018-05-14T02:41:17.591Z,16.68
2018-05-14T02:42:17.782Z,16.74
2018-05-14T02:43:17.935Z,16.65
2018-05-14T02:44:18.093Z,16.60
2018-05-14T02:45:18.258Z,16.56
2018-05-14T02:46:18.429Z,16.51
2018-05-14T02:47:18.596Z,16.61
2018-05-14T02:48:18.759Z,16.61
2018-05-14T02:50:51.083Z,16.68
2018-05-14T02:51:51.204Z,16.65
2018-05-14T02:52:51.362Z,16.51
2018-05-14T02:53:51.535Z,16.54
2018-05-14T02:54:51.700Z,16.58
2018-05-14T02:55:51.901Z,16.61
2018-05-14T02:56:52.087Z,16.61
2018-05-14T02:57:52.228Z,16.43
2018-05-14T02:58:52.389Z,16.47
2018-05-14T02:59:52.652Z,16.50
2018-05-14T03:00:52.687Z,16.46
2018-05-14T03:01:52.887Z,16.41
2018-05-14T03:02:53.055Z,16.42
2018-05-14T03:03:53.191Z,16.43
2018-05-14T03:04:53.367Z,16.50
2018-05-14T03:07:25.635Z,16.39
2018-05-14T03:08:25.801Z,16.42
2018-05-14T03:09:25.964Z,16.43
2018-05-14T03:10:26.161Z,16.36
2018-05-14T03:11:26.297Z,16.43
2018-05-14T03:12:26.457Z,16.38
2018-05-14T03:13:26.621Z,16.38
2018-05-14T03:14:26.788Z,16.33
2018-05-14T03:15:26.956Z,16.38
2018-05-14T03:16:27.157Z,16.32
2018-05-14T03:17:27.323Z,16.28
2018-05-14T03:18:27.487Z,16.28
2018-05-14T03:19:28.164Z,16.36
2018-05-14T03:20:27.827Z,16.16
2018-05-14T03:21:27.992Z,16.21
2018-05-14T03:24:00.269Z,16.12
2018-05-14T03:25:00.440Z,16.12
2018-05-14T03:26:00.620Z,16.23
2018-05-14T03:27:00.788Z,16.12
2018-05-14T03:28:00.952Z,16.15
2018-05-14T03:29:01.117Z,16.23
2018-05-14T03:30:01.306Z,15.98
2018-05-14T03:31:01.472Z,16.12
2018-05-14T03:32:01.635Z,15.98
2018-05-14T03:33:01.802Z,16.05
2018-05-14T03:35:44.085Z,15.91
2018-05-14T03:36:44.255Z,16.01
2018-05-14T03:37:44.412Z,15.94
2018-05-14T03:38:44.581Z,15.98
2018-05-14T03:39:44.747Z,15.98
2018-05-14T03:40:44.911Z,15.94
2018-05-14T03:41:45.069Z,15.90
2018-05-14T03:42:45.302Z,15.88
2018-05-14T03:43:45.397Z,15.88
2018-05-14T03:44:45.574Z,15.88
2018-05-14T03:45:45.749Z,15.91
2018-05-14T03:46:45.909Z,15.88
2018-05-14T03:47:46.078Z,15.76
2018-05-14T03:48:46.246Z,15.86
2018-05-14T03:49:46.403Z,15.80
2018-05-14T03:52:28.976Z,15.92
2018-05-14T03:53:29.151Z,15.77
2018-05-14T03:54:29.313Z,15.77
2018-05-14T03:55:29.491Z,15.84
2018-05-14T03:56:29.668Z,15.80
2018-05-14T03:57:29.883Z,15.72
2018-05-14T03:58:30.038Z,15.72
2018-05-14T03:59:30.204Z,15.70
2018-05-14T04:00:30.369Z,15.67
2018-05-14T04:01:30.537Z,15.77
2018-05-14T04:02:30.769Z,15.62
2018-05-14T04:03:30.864Z,15.73
2018-05-14T04:04:31.032Z,15.75
2018-05-14T04:05:31.195Z,15.64
2018-05-14T04:06:31.360Z,15.62
2018-05-14T04:09:13.612Z,15.62
2018-05-14T04:10:13.782Z,15.64
2018-05-14T04:11:13.944Z,15.57
2018-05-14T04:12:14.112Z,15.51
2018-05-14T04:13:14.276Z,15.58
2018-05-14T04:14:15.159Z,15.51
2018-05-14T04:15:14.573Z,15.51
2018-05-14T04:16:14.753Z,15.52
2018-05-14T04:17:14.935Z,15.49
2018-05-14T04:18:15.087Z,15.33
2018-05-14T04:19:15.254Z,15.44
2018-05-14T04:20:15.418Z,15.40
2018-05-14T04:21:15.587Z,15.40
2018-05-14T04:22:15.758Z,15.39
2018-05-14T04:23:15.906Z,15.42
2018-05-14T04:25:58.490Z,15.37
2018-05-14T04:27:05.508Z,15.44
2018-05-14T04:27:58.441Z,15.49
2018-05-14T04:28:58.666Z,15.55
2018-05-14T04:29:58.785Z,15.51
2018-05-14T04:30:58.953Z,15.52
2018-05-14T04:31:59.177Z,15.52
2018-05-14T04:32:59.328Z,15.54
2018-05-14T04:33:59.495Z,15.65
2018-05-14T04:34:59.687Z,15.61
2018-05-14T04:35:59.834Z,15.55
2018-05-14T04:37:00.021Z,15.57
2018-05-14T04:38:00.210Z,15.65
2018-05-14T04:39:00.400Z,15.64
2018-05-14T04:40:00.658Z,15.73
2018-05-14T04:41:00.714Z,15.70
2018-05-14T04:43:43.401Z,15.77
2018-05-14T04:44:43.444Z,15.80
2018-05-14T04:45:43.620Z,15.82
2018-05-14T04:46:43.784Z,15.86
2018-05-14T04:47:43.954Z,15.88
2018-05-14T04:48:44.127Z,15.97
2018-05-14T04:49:44.277Z,15.80
2018-05-14T04:50:44.444Z,15.86
2018-05-14T04:51:44.610Z,15.83
2018-05-14T04:52:44.776Z,15.86
2018-05-14T04:55:27.069Z,15.76
2018-05-14T04:56:27.234Z,15.84
2018-05-14T04:57:27.419Z,15.80
2018-05-14T04:58:27.581Z,15.91
2018-05-14T04:59:27.741Z,15.82
2018-05-14T05:00:27.914Z,15.75
2018-05-14T05:01:28.115Z,15.80
2018-05-14T05:02:28.278Z,15.65
2018-05-14T05:03:35.910Z,15.68
2018-05-14T05:04:28.594Z,15.80
2018-05-14T05:05:28.757Z,15.86
2018-05-14T05:06:28.934Z,15.94
2018-05-14T05:07:29.133Z,16.04
2018-05-14T05:08:29.293Z,15.92
2018-05-14T05:09:29.455Z,15.95
2018-05-14T05:10:29.663Z,15.95
2018-05-14T05:11:29.869Z,15.91
2018-05-14T05:12:30.141Z,15.84
2018-05-14T05:13:31.015Z,15.90
2018-05-14T05:14:30.221Z,15.92
2018-05-14T05:15:30.396Z,15.92
2018-05-14T05:16:39.517Z,16.02
2018-05-14T05:17:30.682Z,16.10
2018-05-14T05:18:30.895Z,16.09
2018-05-14T05:19:31.066Z,15.92
2018-05-14T05:20:31.233Z,15.72
2018-05-14T05:21:31.403Z,15.58
2018-05-14T05:22:31.561Z,15.55
2018-05-14T05:23:31.785Z,15.62
2018-05-14T05:24:31.958Z,15.58
2018-05-14T05:25:32.173Z,15.75
2018-05-14T05:26:33.050Z,15.77
2018-05-14T05:27:40.503Z,15.98
2018-05-14T05:28:32.650Z,16.02
2018-05-14T05:29:32.829Z,15.97
2018-05-14T05:30:33.001Z,16.01
2018-05-14T05:31:33.146Z,16.16
2018-05-14T05:32:33.411Z,16.20
2018-05-14T05:33:34.133Z,16.08
2018-05-14T05:34:54.784Z,16.04
2018-05-14T05:35:33.790Z,16.12
2018-05-14T05:36:33.985Z,16.12
2018-05-14T05:37:34.164Z,16.17
2018-05-14T05:40:16.762Z,16.29
2018-05-14T05:41:16.931Z,16.33
2018-05-14T05:42:23.962Z,16.47
2018-05-14T05:43:17.244Z,16.54
2018-05-14T05:44:17.445Z,16.46
2018-05-14T05:45:17.633Z,16.49
2018-05-14T05:46:17.783Z,16.42
2018-05-14T05:47:18.017Z,16.58
2018-05-14T05:48:18.052Z,16.64
2018-05-14T05:49:18.267Z,16.58
2018-05-14T05:50:18.411Z,16.64
2018-05-14T05:51:18.582Z,16.83
2018-05-14T05:52:18.792Z,17.29
2018-05-14T05:53:18.949Z,17.63
2018-05-14T05:54:19.127Z,17.83
2018-05-14T05:57:13.423Z,18.49
2018-05-14T05:58:13.594Z,18.49
2018-05-14T05:59:13.762Z,18.71
2018-05-14T06:00:14.423Z,18.98
2018-05-14T06:01:14.113Z,19.24
2018-05-14T06:02:14.251Z,19.56
2018-05-14T06:03:14.431Z,19.73
2018-05-14T06:04:15.432Z,19.63
2018-05-14T06:05:14.723Z,19.55
2018-05-14T06:06:14.888Z,19.77
2018-05-14T06:07:15.084Z,19.91
2018-05-14T06:08:15.228Z,19.84
2018-05-14T06:09:15.410Z,19.71
2018-05-14T06:10:15.596Z,19.82
2018-05-14T06:11:15.769Z,19.62
2018-05-14T06:13:48.043Z,19.66
2018-05-14T06:14:48.212Z,19.70
2018-05-14T06:15:48.409Z,19.51
2018-05-14T06:16:48.578Z,19.62
2018-05-14T06:17:48.747Z,19.24
2018-05-14T06:18:48.914Z,19.44
2018-05-14T06:19:49.086Z,19.18
2018-05-14T06:20:56.722Z,19.22
2018-05-14T06:21:50.097Z,18.92
2018-05-14T06:22:49.513Z,18.88
2018-05-14T06:23:49.828Z,19.18
2018-05-14T06:24:49.957Z,19.09
2018-05-14T06:25:58.137Z,19.07
2018-05-14T06:26:50.208Z,19.22
2018-05-14T06:27:50.459Z,19.19
2018-05-14T06:28:50.552Z,19.30
2018-05-14T06:29:50.723Z,19.30
2018-05-14T06:30:50.932Z,19.21
2018-05-14T06:31:51.105Z,19.39
2018-05-14T06:32:51.275Z,19.40
2018-05-14T06:33:51.451Z,19.51
2018-05-14T06:34:51.633Z,19.37
2018-05-14T06:35:51.803Z,19.59
2018-05-14T06:38:34.112Z,19.40
2018-05-14T06:39:34.313Z,19.54
2018-05-14T06:40:34.487Z,19.67
2018-05-14T06:41:34.656Z,19.59
2018-05-14T06:42:34.826Z,19.70
2018-05-14T06:43:35.045Z,19.82
2018-05-14T06:44:35.200Z,19.94
2018-05-14T06:45:35.367Z,19.88
2018-05-14T06:46:35.529Z,19.54
2018-05-14T06:47:35.725Z,19.67
2018-05-14T06:48:35.936Z,19.37
2018-05-14T06:49:36.100Z,19.41
2018-05-14T06:50:36.265Z,19.36
2018-05-14T06:51:36.435Z,19.49
2018-05-14T06:52:36.605Z,19.62
2018-05-14T06:55:19.125Z,19.71
2018-05-14T06:56:27.221Z,19.81
2018-05-14T06:57:19.257Z,19.74
2018-05-14T06:58:19.430Z,19.86
2018-05-14T06:59:19.647Z,19.99
2018-05-14T07:00:27.251Z,20.11
2018-05-14T07:01:19.911Z,20.21
2018-05-14T07:02:20.074Z,20.31
2018-05-14T07:03:20.241Z,20.24
2018-05-14T07:04:20.405Z,20.21
2018-05-14T07:05:20.579Z,20.07
2018-05-14T07:06:20.741Z,19.94
2018-05-14T07:07:20.904Z,19.82
2018-05-14T07:08:21.071Z,19.70
2018-05-14T07:09:21.237Z,19.70
2018-05-14T07:10:21.430Z,19.71
2018-05-14T07:11:22.494Z,19.73
2018-05-14T07:12:22.579Z,19.88
2018-05-14T07:13:21.940Z,19.91
2018-05-14T07:14:22.136Z,19.95
2018-05-14T07:17:04.410Z,19.95
2018-05-14T07:18:04.696Z,20.14
2018-05-14T07:19:04.762Z,20.07
2018-05-14T07:20:04.967Z,19.94
2018-05-14T07:21:05.136Z,20.04
2018-05-14T07:22:10.264Z,20.06
2018-05-14T07:23:10.307Z,20.09
2018-05-14T07:24:10.484Z,19.92
2018-05-14T07:25:10.644Z,20.16
2018-05-14T07:26:10.814Z,20.26
2018-05-14T07:27:18.759Z,20.26
2018-05-14T07:28:11.159Z,20.47
2018-05-14T07:29:11.344Z,20.56
2018-05-14T07:30:11.606Z,20.77
2018-05-14T07:31:11.730Z,20.92
2018-05-14T07:32:12.069Z,20.87
2018-05-14T07:33:12.054Z,20.99
2018-05-14T07:34:12.265Z,21.11
2018-05-14T07:35:12.436Z,21.20
2018-05-14T07:36:12.671Z,21.32
2018-05-14T07:37:12.794Z,21.15
2018-05-14T07:38:12.953Z,21.24
2018-05-14T07:39:13.144Z,21.32
2018-05-14T07:40:13.328Z,21.51
2018-05-14T07:41:13.494Z,21.58
2018-05-14T07:43:45.835Z,21.89
2018-05-14T07:44:45.998Z,22.07
2018-05-14T07:45:46.254Z,22.02
2018-05-14T07:46:46.398Z,22.17
2018-05-14T07:47:46.529Z,22.10
2018-05-14T07:48:46.725Z,22.08
2018-05-14T07:49:46.888Z,22.23
2018-05-14T07:50:47.045Z,22.33
2018-05-14T07:51:47.242Z,22.45
2018-05-14T07:52:47.482Z,22.59
2018-05-14T07:53:47.606Z,22.32
2018-05-14T07:54:47.817Z,22.38
2018-05-14T07:55:48.004Z,22.43
2018-05-14T07:56:48.152Z,22.36
2018-05-14T07:57:48.360Z,22.26
2018-05-14T08:00:20.903Z,22.45
2018-05-14T08:01:28.147Z,22.65
2018-05-14T08:02:21.185Z,22.84
2018-05-14T08:03:21.387Z,22.91
2018-05-14T08:04:21.561Z,22.66
2018-05-14T08:06:54.196Z,22.70
2018-05-14T08:07:54.361Z,22.59
2018-05-14T08:08:54.528Z,22.53
2018-05-14T08:09:54.707Z,22.66
2018-05-14T08:10:54.864Z,22.59
2018-05-14T08:11:55.041Z,22.44
2018-05-14T08:12:55.206Z,22.43
2018-05-14T08:13:55.381Z,22.44
2018-05-14T08:14:55.547Z,22.39
2018-05-14T08:15:55.732Z,22.57
2018-05-14T08:16:55.898Z,22.66
2018-05-14T08:17:56.062Z,22.63
2018-05-14T08:18:56.230Z,22.78
2018-05-14T08:21:28.723Z,22.93
2018-05-14T08:22:35.917Z,23.10
2018-05-14T08:23:29.172Z,23.13
2018-05-14T08:24:30.048Z,23.32
2018-05-14T08:25:36.711Z,23.28
2018-05-14T08:26:29.391Z,23.27
2018-05-14T08:27:29.593Z,23.32
2018-05-14T08:28:29.726Z,23.55
2018-05-14T08:29:30.149Z,23.46
2018-05-14T08:30:30.061Z,23.44
2018-05-14T08:31:30.288Z,23.46
2018-05-14T08:32:30.398Z,23.66
2018-05-14T08:33:30.571Z,23.55
2018-05-14T08:34:30.772Z,23.73
2018-05-14T08:35:30.957Z,23.63
2018-05-14T08:36:31.118Z,23.63
2018-05-14T08:37:31.278Z,23.44
2018-05-14T08:38:31.445Z,23.43
2018-05-14T08:39:31.613Z,23.51
2018-05-14T08:42:14.248Z,23.65
2018-05-14T08:43:14.302Z,23.74
2018-05-14T08:44:21.922Z,23.74
2018-05-14T08:45:14.590Z,23.56
2018-05-14T08:46:14.749Z,23.55
2018-05-14T08:47:14.937Z,23.41
2018-05-14T08:48:15.134Z,23.65
2018-05-14T08:49:15.326Z,23.76
2018-05-14T08:50:23.014Z,23.62
2018-05-14T08:51:15.677Z,23.86
2018-05-14T08:52:15.851Z,24.11
2018-05-14T08:53:16.053Z,23.84
2018-05-14T08:54:16.293Z,23.86
2018-05-14T08:55:16.419Z,23.84
2018-05-14T08:56:16.609Z,23.87
2018-05-14T08:57:16.789Z,23.81
2018-05-14T08:58:17.072Z,23.80
2018-05-14T08:59:17.255Z,23.76
2018-05-14T09:00:17.246Z,23.95
2018-05-14T09:01:17.411Z,24.24
2018-05-14T09:02:17.577Z,24.36
2018-05-14T09:03:17.790Z,24.23
2018-05-14T09:04:17.975Z,24.03
2018-05-14T09:06:50.692Z,23.78
2018-05-14T09:07:50.546Z,23.96
2018-05-14T09:08:50.709Z,23.92
2018-05-14T09:09:50.874Z,23.98
2018-05-14T09:10:51.094Z,24.05
2018-05-14T09:11:51.306Z,24.16
2018-05-14T09:12:51.612Z,24.24
2018-05-14T09:13:51.707Z,24.30
2018-05-14T09:14:51.885Z,24.36
2018-05-14T09:15:52.067Z,24.38
2018-05-14T09:16:52.245Z,24.43
2018-05-14T09:17:52.413Z,24.35
2018-05-14T09:18:52.609Z,24.58
2018-05-14T09:19:53.072Z,24.50
2018-05-14T09:21:01.449Z,24.69
2018-05-14T09:21:53.103Z,24.70
2018-05-14T09:22:53.797Z,24.80
2018-05-14T09:23:53.494Z,24.77
2018-05-14T09:24:53.681Z,24.92
2018-05-14T09:25:53.884Z,25.03
2018-05-14T09:26:54.037Z,25.11
2018-05-14T09:28:02.354Z,25.16
2018-05-14T09:28:54.422Z,25.18
2018-05-14T09:29:54.627Z,25.22
2018-05-14T09:30:54.800Z,25.26
2018-05-14T09:31:54.991Z,25.16
2018-05-14T09:32:55.176Z,24.86
2018-05-14T09:33:55.378Z,24.86
2018-05-14T09:34:55.563Z,24.81
2018-05-14T09:35:55.772Z,24.92
2018-05-14T09:36:55.964Z,24.88
2018-05-14T09:37:56.751Z,25.04
2018-05-14T09:38:56.358Z,25.06
2018-05-14T09:39:56.593Z,25.17
2018-05-14T09:40:56.772Z,25.14
2018-05-14T09:41:56.961Z,25.17
2018-05-14T09:43:04.840Z,25.33
2018-05-14T09:43:57.282Z,25.18
2018-05-14T09:44:57.617Z,25.25
2018-05-14T09:45:57.568Z,25.35
2018-05-14T09:46:57.743Z,25.43
2018-05-14T09:47:57.930Z,25.35
2018-05-14T09:48:58.137Z,25.44
2018-05-14T09:50:05.528Z,25.43
2018-05-14T09:50:58.459Z,25.36
2018-05-14T09:51:58.630Z,25.22
2018-05-14T09:52:58.797Z,25.18
2018-05-14T09:53:58.962Z,25.25
2018-05-14T09:54:59.158Z,25.32
2018-05-14T09:55:59.363Z,25.38
2018-05-14T09:56:59.550Z,25.46
2018-05-14T09:57:59.728Z,25.47
2018-05-14T09:59:00.890Z,25.48
2018-05-14T10:00:00.077Z,25.38
2018-05-14T10:02:43.811Z,25.48
2018-05-14T10:03:43.665Z,25.50
2018-05-14T10:04:43.871Z,25.65
2018-05-14T10:05:45.003Z,25.66
2018-05-14T10:06:45.263Z,25.66
2018-05-14T10:07:44.411Z,25.65
2018-05-14T10:08:51.813Z,25.68
2018-05-14T10:09:44.765Z,25.55
2018-05-14T10:10:44.986Z,25.66
2018-05-14T10:13:17.049Z,25.59
2018-05-14T10:14:17.269Z,25.65
2018-05-14T10:15:17.378Z,25.63
2018-05-14T10:16:17.563Z,25.53
2018-05-14T10:17:17.725Z,25.68
2018-05-14T10:18:17.919Z,25.53
2018-05-14T10:19:18.105Z,25.60
2018-05-14T10:20:18.261Z,25.77
2018-05-14T10:21:18.476Z,25.81
2018-05-14T10:22:18.633Z,25.90
2018-05-14T10:23:18.833Z,25.84
2018-05-14T10:24:19.017Z,25.88
2018-05-14T10:25:19.790Z,25.78
2018-05-14T10:26:19.353Z,25.99
2018-05-14T10:27:19.631Z,26.18
2018-05-14T10:30:01.883Z,26.37
2018-05-14T10:31:01.931Z,26.43
2018-05-14T10:32:09.329Z,26.43
2018-05-14T10:33:02.268Z,26.28
2018-05-14T10:34:02.442Z,26.13
2018-05-14T10:36:34.761Z,26.03
2018-05-14T10:37:34.912Z,26.10
2018-05-14T10:38:35.130Z,26.07
2018-05-14T10:39:35.288Z,25.80
2018-05-14T10:40:35.468Z,25.85
2018-05-14T10:41:35.652Z,25.99
2018-05-14T10:42:35.870Z,26.00
2018-05-14T10:43:35.988Z,25.98
2018-05-14T10:44:36.121Z,26.05
2018-05-14T10:45:36.316Z,26.06
2018-05-14T10:46:36.544Z,26.23
2018-05-14T10:47:36.703Z,26.22
2018-05-14T10:48:36.871Z,26.18
2018-05-14T10:49:37.043Z,25.99
2018-05-14T10:50:37.211Z,26.00
2018-05-14T10:53:19.585Z,26.07
2018-05-14T10:54:30.208Z,26.19
2018-05-14T10:55:19.829Z,26.23
2018-05-14T10:56:19.928Z,26.05
2018-05-14T10:57:27.779Z,26.09
2018-05-14T10:58:21.177Z,26.15
2018-05-14T10:59:20.419Z,26.21
2018-05-14T11:00:21.105Z,26.25
2018-05-14T11:01:20.660Z,26.37
2018-05-14T11:02:20.969Z,26.48
2018-05-14T11:03:20.961Z,26.48
2018-05-14T11:04:21.486Z,26.44
2018-05-14T11:05:21.398Z,26.26
2018-05-14T11:06:21.442Z,26.10
2018-05-14T11:07:22.500Z,25.93
2018-05-14T11:10:00.063Z,26.38
2018-05-14T11:10:55.035Z,26.43
2018-05-14T11:11:55.571Z,26.43
2018-05-14T11:12:56.022Z,26.45
2018-05-14T11:13:55.578Z,26.47
2018-05-14T11:14:55.962Z,26.34
2018-05-14T11:15:55.957Z,26.33
2018-05-14T11:16:56.386Z,26.34
2018-05-14T11:17:56.276Z,26.31
2018-05-14T11:18:56.522Z,26.43
2018-05-14T11:19:57.481Z,26.44
2018-05-14T11:20:56.928Z,26.47
2018-05-14T11:21:57.218Z,26.44
2018-05-14T11:22:57.234Z,26.47
2018-05-14T11:23:57.384Z,26.55
2018-05-14T11:26:29.955Z,26.62
2018-05-14T11:27:30.771Z,26.63
2018-05-14T11:28:30.303Z,26.75
2018-05-14T11:29:30.497Z,26.70
2018-05-14T11:30:30.676Z,26.81
2018-05-14T11:31:31.685Z,26.78
2018-05-14T11:32:30.983Z,26.83
2018-05-14T11:33:31.168Z,26.73
2018-05-14T11:34:31.329Z,26.71
2018-05-14T11:35:32.279Z,26.77
2018-05-14T11:36:31.723Z,26.58
2018-05-14T11:37:32.683Z,26.56
2018-05-14T11:38:32.227Z,26.47
2018-05-14T11:39:32.307Z,26.45
2018-05-14T11:40:33.207Z,26.52
2018-05-14T11:43:06.058Z,26.37
2018-05-14T11:44:06.216Z,26.40
2018-05-14T11:45:06.396Z,26.37
2018-05-14T11:46:06.645Z,26.26
2018-05-14T11:47:14.275Z,26.21
2018-05-14T11:48:06.936Z,26.19
2018-05-14T11:49:07.138Z,26.25
2018-05-14T11:50:14.871Z,26.15
2018-05-14T11:51:07.443Z,26.09
2018-05-14T11:52:07.609Z,26.09
2018-05-14T11:53:07.885Z,26.25
2018-05-14T11:54:07.963Z,26.15
2018-05-14T11:55:08.148Z,26.09
2018-05-14T11:56:08.328Z,26.26
2018-05-14T11:57:08.535Z,26.22
2018-05-14T11:58:08.893Z,26.31
2018-05-14T11:59:08.828Z,26.31
2018-05-14T12:00:08.987Z,26.40
2018-05-14T12:02:41.289Z,26.59
2018-05-14T12:03:41.483Z,26.74
2018-05-14T12:04:41.642Z,26.83
2018-05-14T12:05:41.824Z,26.80
2018-05-14T12:06:42.007Z,26.77
2018-05-14T12:07:42.233Z,26.66
2018-05-14T12:08:51.273Z,26.70
2018-05-14T12:09:42.623Z,26.55
2018-05-14T12:10:42.823Z,26.47
2018-05-14T12:11:50.453Z,26.48
2018-05-14T12:12:43.143Z,26.51
2018-05-14T12:13:51.304Z,26.62
2018-05-14T12:14:43.461Z,26.68
2018-05-14T12:15:43.645Z,26.78
2018-05-14T12:16:43.814Z,26.73
2018-05-14T12:17:43.987Z,26.75
2018-05-14T12:18:44.165Z,26.80
2018-05-14T12:19:44.352Z,26.73
2018-05-14T12:20:44.655Z,26.84
2018-05-14T12:21:44.719Z,26.90
2018-05-14T12:22:44.967Z,27.08
2018-05-14T12:25:27.145Z,27.22
2018-05-14T12:26:27.339Z,27.20
2018-05-14T12:27:27.525Z,27.42
2018-05-14T12:28:27.694Z,27.35
2018-05-14T12:29:27.877Z,27.25
2018-05-14T12:30:28.078Z,27.03
2018-05-14T12:31:28.419Z,27.05
2018-05-14T12:32:36.410Z,27.11
2018-05-14T12:33:28.455Z,27.08
2018-05-14T12:34:28.633Z,27.18
2018-05-14T12:35:28.803Z,27.20
2018-05-14T12:36:28.976Z,27.17
2018-05-14T12:37:29.296Z,27.17
2018-05-14T12:38:29.290Z,27.39
2018-05-14T12:39:29.519Z,27.40
2018-05-14T12:40:29.635Z,27.52
2018-05-14T12:41:29.809Z,27.37
2018-05-14T12:42:29.983Z,27.45
2018-05-14T12:45:12.371Z,27.26
2018-05-14T12:46:12.500Z,27.35
2018-05-14T12:47:12.612Z,27.33
2018-05-14T12:48:13.296Z,27.22
2018-05-14T12:49:12.959Z,27.11
2018-05-14T12:50:13.148Z,27.14
2018-05-14T12:51:13.335Z,27.05
2018-05-14T12:52:13.497Z,26.93
2018-05-14T12:53:13.697Z,26.96
2018-05-14T12:54:13.875Z,27.08
2018-05-14T12:55:14.042Z,26.96
2018-05-14T12:56:14.232Z,26.99
2018-05-14T12:57:23.102Z,27.08
2018-05-14T12:58:14.587Z,27.03
2018-05-14T12:59:15.333Z,26.97
2018-05-14T13:00:14.908Z,26.90
2018-05-14T13:01:23.106Z,26.96
2018-05-14T13:02:15.412Z,27.20
2018-05-14T13:03:15.499Z,27.22
2018-05-14T13:04:15.748Z,27.18
2018-05-14T13:05:15.826Z,27.17
2018-05-14T13:06:15.981Z,27.32
2018-05-14T13:07:16.178Z,27.36
2018-05-14T13:08:16.362Z,27.39
2018-05-14T13:09:16.531Z,27.40
2018-05-14T13:10:16.721Z,27.22
2018-05-14T13:11:16.891Z,27.11
2018-05-14T13:12:17.082Z,26.97
2018-05-14T13:13:17.309Z,26.99
2018-05-14T13:14:17.374Z,26.96
2018-05-14T13:15:17.578Z,26.97
2018-05-14T13:16:17.790Z,27.03
2018-05-14T13:20:31.769Z,27.39
2018-05-14T13:21:31.801Z,27.35
2018-05-14T13:22:31.993Z,27.44
2018-05-14T13:23:40.266Z,27.37
2018-05-14T13:24:34.265Z,27.42
2018-05-14T13:25:40.385Z,27.39
2018-05-14T13:26:32.594Z,27.37
2018-05-14T13:27:32.770Z,27.51
2018-05-14T13:28:32.942Z,27.51
2018-05-14T13:29:33.118Z,27.39
2018-05-14T13:30:33.284Z,27.20
2018-05-14T13:31:33.455Z,27.26
2018-05-14T13:32:33.625Z,27.47
2018-05-14T13:33:33.812Z,27.54
2018-05-14T13:34:33.977Z,27.52
2018-05-14T13:35:34.175Z,27.52
2018-05-14T13:38:16.768Z,27.35
2018-05-14T13:39:16.968Z,27.25
2018-05-14T13:40:17.132Z,27.22
2018-05-14T13:41:17.307Z,27.20
2018-05-14T13:42:17.521Z,27.11
2018-05-14T13:43:17.713Z,27.08
2018-05-14T13:44:17.883Z,27.08
2018-05-14T13:45:18.054Z,27.12
2018-05-14T13:46:25.735Z,27.32
2018-05-14T13:47:18.397Z,27.39
2018-05-14T13:48:18.605Z,27.51
2018-05-14T13:49:18.755Z,27.48
2018-05-14T13:50:26.491Z,27.47
2018-05-14T13:51:19.037Z,27.55
2018-05-14T13:52:19.204Z,27.51
2018-05-14T13:53:19.387Z,27.40
2018-05-14T13:54:19.583Z,27.37
2018-05-14T13:55:19.768Z,27.25
2018-05-14T13:56:20.284Z,27.18
2018-05-14T13:57:20.205Z,27.05
2018-05-14T13:58:20.369Z,26.99
2018-05-14T13:59:20.542Z,26.99
2018-05-14T14:00:21.468Z,27.08
2018-05-14T14:01:20.979Z,27.15
2018-05-14T14:02:21.042Z,27.11
2018-05-14T14:03:22.045Z,27.25
2018-05-14T14:04:21.446Z,27.26
2018-05-14T14:07:05.020Z,27.49
2018-05-14T14:09:35.702Z,27.21
2018-05-14T14:10:35.900Z,27.14
2018-05-14T14:11:36.052Z,27.20
2018-05-14T14:12:43.622Z,27.26
2018-05-14T14:13:36.447Z,27.32
2018-05-14T14:14:36.574Z,27.51